Time;durP1;ratioP1;P1;durP2;ratioP2;P2;SDS_P1;SDS_P2;PMS_P1;PMS_P2;Temp;Humidity;BMP_temperature;BMP_pressure;BME280_temperature;BME280_humidity;BME280_pressure;Samples;Min_cycle;Max_cycle;Signal;HPM_P1;HPM_P2
2022/01/17 00:02:00;;;;;;;11.07;3.55;;;;;;;17.20;38.64;101289.72;4232098;28;20044;-43
2022/01/17 00:04:01;;;;;;;11.48;2.90;;;;;;;17.26;38.32;101291.50;4231018;28;20844;-42
2022/01/17 00:06:03;;;;;;;5.70;2.45;;;;;;;17.25;38.49;101278.75;4232218;28;20039;-42
2022/01/17 00:08:05;;;;;;;4.45;2.42;;;;;;;17.32;38.20;101276.69;4232014;28;20081;-42
2022/01/17 00:10:07;;;;;;;7.57;3.08;;;;;;;17.28;38.15;101239.53;4232206;28;20040;-42
2022/01/17 00:12:10;;;;;;;8.18;2.53;;;;;;;17.36;38.23;101241.88;4232462;28;20097;-43
2022/01/17 00:14:15;;;;;;;5.88;2.80;;;;;;;17.39;38.08;101229.50;4232463;28;20031;-42
2022/01/17 00:16:25;;;;;;;5.00;2.33;;;;;;;17.39;37.85;101213.72;4232350;28;20556;-43
2022/01/17 00:18:51;;;;;;;13.73;2.65;;;;;;;17.37;37.90;101193.78;4231910;28;20039;-43
2022/01/17 00:20:48;;;;;;;5.38;2.47;;;;;;;17.44;38.05;101188.91;4232298;28;20065;-42
2022/01/17 00:22:49;;;;;;;3.35;2.42;;;;;;;17.44;37.92;101182.53;4231899;28;20504;-41
2022/01/17 00:24:51;;;;;;;6.15;2.50;;;;;;;17.46;37.86;101177.63;4226444;28;20075;-42
2022/01/17 00:26:52;;;;;;;8.93;2.60;;;;;;;17.46;37.76;101170.16;4231576;28;20077;-43
2022/01/17 00:28:56;;;;;;;4.82;2.65;;;;;;;17.36;37.83;101135.94;4231687;28;20040;-42
2022/01/17 00:31:04;;;;;;;14.77;3.22;;;;;;;17.39;38.12;101138.19;4214077;28;20032;-43
2022/01/17 00:33:06;;;;;;;15.23;2.95;;;;;;;17.47;38.17;101140.56;4230255;27;20069;-42
2022/01/17 00:35:08;;;;;;;11.82;2.72;;;;;;;17.48;37.96;101123.69;4228308;28;20424;-43
2022/01/17 00:37:10;;;;;;;10.27;2.53;;;;;;;17.49;38.30;101130.88;4230787;28;20032;-43
2022/01/17 00:39:11;;;;;;;6.85;3.17;;;;;;;17.49;38.19;101113.44;4231304;27;20454;-43
2022/01/17 00:41:16;;;;;;;8.35;3.17;;;;;;;17.49;38.34;101117.06;4208503;28;20109;-43
2022/01/17 00:43:17;;;;;;;8.35;3.25;;;;;;;17.48;38.18;101096.03;4231359;28;20381;-43
2022/01/17 00:45:25;;;;;;;7.38;2.50;;;;;;;17.48;38.21;101075.81;4235909;27;20499;-43
2022/01/17 00:47:26;;;;;;;9.40;2.40;;;;;;;17.49;38.51;101063.66;4231844;27;20031;-42
2022/01/17 00:49:28;;;;;;;7.55;1.98;;;;;;;17.51;38.34;101067.03;4241915;27;20043;-42
2022/01/17 00:51:30;;;;;;;5.75;2.70;;;;;;;17.44;38.20;101033.16;4224325;27;20040;-43
2022/01/17 00:53:31;;;;;;;7.97;2.50;;;;;;;17.45;38.35;101019.06;4230206;28;20104;-43
2022/01/17 00:55:35;;;;;;;7.22;2.08;;;;;;;17.50;38.68;101016.38;4232328;27;20036;-43
2022/01/17 00:57:36;;;;;;;6.15;2.40;;;;;;;17.49;38.89;100998.09;4230894;27;20065;-43
2022/01/17 00:59:41;;;;;;;10.60;3.00;;;;;;;17.51;38.47;100995.91;4231120;28;20417;-41
2022/01/17 01:01:46;;;;;;;6.82;2.80;;;;;;;17.50;38.83;100985.09;4234854;27;20075;-43
2022/01/17 01:03:47;;;;;;;10.00;2.90;;;;;;;17.58;39.05;100987.41;4215681;28;20463;-41
2022/01/17 01:05:49;;;;;;;12.45;2.70;;;;;;;17.59;38.84;100991.84;4214198;28;20097;-41
2022/01/17 01:07:54;;;;;;;7.40;2.58;;;;;;;17.57;39.19;100988.50;4229589;28;20123;-41
2022/01/17 01:10:03;;;;;;;6.38;2.30;;;;;;;17.59;39.56;100972.47;4224651;28;20084;-42
2022/01/17 01:12:05;;;;;;;9.43;2.30;;;;;;;17.59;39.63;100957.81;4228053;28;20039;-41
2022/01/17 01:14:06;;;;;;;9.43;3.58;;;;;;;17.57;39.88;100941.47;4229597;28;20043;-42
2022/01/17 01:18:17;;;;;;;5.65;2.40;;;;;;;17.60;39.94;100910.53;4214417;28;20032;-42
2022/01/17 01:29:44;;;;;;;6.88;3.22;;;;;;;17.62;40.98;100866.81;4232042;28;20172;-41
2022/01/17 01:31:56;;;;;;;6.10;2.63;;;;;;;17.64;41.04;100856.34;4227014;28;20115;-43
2022/01/17 01:34:04;;;;;;;9.43;2.88;;;;;;;17.63;41.12;100849.13;4225538;27;20453;-42
2022/01/17 01:36:12;;;;;;;8.35;3.00;;;;;;;17.64;41.57;100839.75;4223829;28;20429;-43
2022/01/17 01:38:13;;;;;;;8.63;2.78;;;;;;;17.61;41.59;100812.59;4222099;28;20100;-42
2022/01/17 01:40:18;;;;;;;12.70;2.95;;;;;;;17.62;41.53;100797.63;4209987;28;20043;-41
2022/01/17 01:42:22;;;;;;;5.55;2.60;;;;;;;17.65;41.56;100786.06;4229692;28;20116;-41
2022/01/17 01:44:25;;;;;;;8.43;2.25;;;;;;;17.65;42.00;100786.06;4208058;28;20032;-41
2022/01/17 01:46:26;;;;;;;8.02;2.92;;;;;;;17.66;41.91;100781.34;4229461;28;20109;-41
2022/01/17 01:48:35;;;;;;;6.00;2.55;;;;;;;17.59;41.90;100748.34;4222269;28;20093;-41
2022/01/17 01:50:37;;;;;;;6.10;2.38;;;;;;;17.61;42.03;100740.63;4227120;28;20134;-43
2022/01/17 01:52:42;;;;;;;9.75;2.45;;;;;;;17.62;42.42;100722.94;4230448;28;20100;-42
2022/01/17 01:54:43;;;;;;;3.67;2.55;;;;;;;17.57;42.34;100708.22;4228108;28;20039;-41
2022/01/17 01:56:47;;;;;;;9.13;2.50;;;;;;;17.63;42.14;100694.16;4228249;28;20116;-41
2022/01/17 01:58:49;;;;;;;8.30;2.95;;;;;;;17.60;42.21;100658.72;4223432;28;20093;-42
2022/01/17 02:00:51;;;;;;;4.10;2.30;;;;;;;17.63;42.26;100649.06;4225813;28;20048;-41
2022/01/17 02:02:53;;;;;;;4.68;2.25;;;;;;;17.63;42.60;100637.97;4224172;28;20080;-41
2022/01/17 02:04:55;;;;;;;6.97;2.47;;;;;;;17.60;42.39;100622.75;4227260;28;20101;-42
2022/01/17 02:06:56;;;;;;;5.82;3.05;;;;;;;17.61;42.87;100591.22;4213507;28;20104;-42
2022/01/17 02:08:58;;;;;;;12.88;2.83;;;;;;;17.60;42.75;100572.97;4220973;28;20043;-42
2022/01/17 02:11:01;;;;;;;7.05;2.67;;;;;;;17.61;42.46;100579.31;4223611;28;20047;-43
2022/01/17 02:13:03;;;;;;;6.43;2.85;;;;;;;17.59;42.71;100565.75;4223771;28;20409;-40
2022/01/17 02:15:05;;;;;;;10.05;2.42;;;;;;;17.60;42.61;100544.47;4219756;28;20367;-41
2022/01/17 02:17:07;;;;;;;8.52;3.47;;;;;;;17.60;42.73;100525.94;4214499;28;20105;-43
2022/01/17 02:19:09;;;;;;;14.35;2.80;;;;;;;17.60;42.89;100517.63;4228063;28;20043;-40
2022/01/17 02:23:17;;;;;;;7.70;2.80;;;;;;;17.59;42.61;100479.97;4225355;28;20089;-43
2022/01/17 02:25:19;;;;;;;8.75;2.78;;;;;;;17.60;42.93;100472.53;4223917;28;20039;-41
2022/01/17 02:27:21;;;;;;;6.50;2.38;;;;;;;17.61;42.84;100452.88;4219546;28;20044;-41
2022/01/17 02:29:22;;;;;;;9.23;3.40;;;;;;;17.59;43.00;100443.16;4227777;28;20043;-43
2022/01/17 02:31:25;;;;;;;9.50;3.80;;;;;;;17.56;42.98;100419.66;4226121;28;20494;-43
2022/01/17 02:33:27;;;;;;;15.75;5.68;;;;;;;17.56;43.00;100427.97;4228413;28;20040;-42
2022/01/17 02:35:30;;;;;;;22.05;7.05;;;;;;;17.56;42.66;100416.91;4225042;28;20101;-43
2022/01/17 02:37:32;;;;;;;25.83;7.85;;;;;;;17.58;42.84;100384.25;4213448;28;20032;-42
2022/01/17 02:39:33;;;;;;;20.35;8.27;;;;;;;17.58;42.91;100380.66;4217147;28;20043;-42
2022/01/17 02:41:39;;;;;;;18.42;7.63;;;;;;;17.57;43.11;100379.81;4219361;28;20044;-44
2022/01/17 02:43:41;;;;;;;17.75;8.07;;;;;;;17.57;42.81;100366.00;4224096;28;20416;-44
2022/01/17 02:47:53;;;;;;;24.45;9.15;;;;;;;17.54;43.01;100339.69;4227196;28;20085;-47
2022/01/17 02:49:55;;;;;;;20.52;8.95;;;;;;;17.55;43.01;100326.72;4220142;28;20120;-42
2022/01/17 02:51:56;;;;;;;19.77;8.93;;;;;;;17.54;42.78;100322.25;4220345;28;20036;-42
2022/01/17 02:54:01;;;;;;;22.10;9.13;;;;;;;17.53;43.17;100304.84;4224731;28;20036;-43
2022/01/17 02:56:06;;;;;;;22.30;9.05;;;;;;;17.53;42.99;100302.06;4213177;28;20070;-42
2022/01/17 02:58:07;;;;;;;22.90;9.73;;;;;;;17.51;43.20;100295.16;4218797;28;20368;-42
2022/01/17 03:00:12;;;;;;;24.20;9.20;;;;;;;17.52;43.11;100282.97;4226481;28;20097;-43
2022/01/17 03:02:13;;;;;;;24.05;9.02;;;;;;;17.54;43.11;100281.59;4227119;28;20036;-42
2022/01/17 03:04:14;;;;;;;23.10;9.27;;;;;;;17.53;43.17;100274.41;4214235;28;20150;-43
2022/01/17 03:06:17;;;;;;;20.27;9.57;;;;;;;17.51;42.79;100248.13;4228816;28;20036;-42
2022/01/17 03:08:22;;;;;;;23.65;9.55;;;;;;;17.53;42.90;100254.22;4229920;28;20039;-41
2022/01/17 03:12:31;;;;;;;23.02;9.50;;;;;;;17.55;43.01;100218.81;4220814;28;20027;-44
2022/01/17 03:14:33;;;;;;;17.67;8.40;;;;;;;17.52;42.69;100197.22;4221766;28;20074;-42
2022/01/17 03:16:35;;;;;;;19.00;8.95;;;;;;;17.53;42.98;100190.59;4212304;28;20101;-41
2022/01/17 03:18:42;;;;;;;24.73;8.95;;;;;;;17.53;42.96;100179.53;4221964;28;20437;-43
2022/01/17 03:20:44;;;;;;;22.67;10.23;;;;;;;17.53;43.19;100165.69;4228585;28;20378;-42
2022/01/17 03:22:45;;;;;;;23.02;8.68;;;;;;;17.52;43.05;100139.13;4206463;28;20483;-43
2022/01/17 03:24:47;;;;;;;22.08;9.15;;;;;;;17.52;43.16;100139.13;4227439;28;20070;-42
2022/01/17 03:26:48;;;;;;;19.20;8.43;;;;;;;17.53;43.01;100140.78;4224543;28;20039;-43
2022/01/17 03:28:50;;;;;;;22.48;8.63;;;;;;;17.51;43.11;100120.91;4232817;28;20167;-42
2022/01/17 03:30:52;;;;;;;18.58;7.80;;;;;;;17.52;43.23;100111.47;4234825;27;20085;-42
2022/01/17 03:32:54;;;;;;;27.40;8.55;;;;;;;17.51;42.89;100104.28;4240292;27;20043;-43
2022/01/17 03:34:55;;;;;;;20.13;8.27;;;;;;;17.50;43.29;100097.06;4249667;27;20100;-41
2022/01/17 03:36:57;;;;;;;23.30;8.23;;;;;;;17.49;43.25;100093.50;4235209;27;20043;-40
2022/01/17 03:38:58;;;;;;;17.88;8.15;;;;;;;17.50;43.06;100069.41;4231471;27;20043;-42
2022/01/17 03:41:02;;;;;;;17.67;7.70;;;;;;;17.45;43.52;100073.03;4226581;28;20425;-41
2022/01/17 03:43:08;;;;;;;15.52;7.22;;;;;;;17.49;43.43;100070.53;4229829;28;20104;-42
2022/01/17 03:45:11;;;;;;;18.17;7.25;;;;;;;17.49;43.13;100034.56;4224178;28;20089;-41
2022/01/17 03:47:13;;;;;;;17.95;7.25;;;;;;;17.48;43.62;100024.63;4222966;28;20487;-42
2022/01/17 03:49:14;;;;;;;18.85;7.82;;;;;;;17.48;43.28;100021.88;4233929;27;20036;-43
2022/01/17 03:51:16;;;;;;;16.98;7.53;;;;;;;17.47;43.38;99993.38;4232606;27;20055;-42
2022/01/17 03:53:17;;;;;;;15.48;6.90;;;;;;;17.46;43.78;99979.84;4232476;27;20080;-42
2022/01/17 03:55:21;;;;;;;15.35;6.60;;;;;;;17.45;43.85;99964.31;4232387;28;20031;-41
2022/01/17 03:57:22;;;;;;;13.13;6.93;;;;;;;17.46;43.73;99968.78;4231903;28;20064;-42
2022/01/17 03:59:24;;;;;;;14.77;7.50;;;;;;;17.46;43.66;99954.94;4229108;28;20149;-43
2022/01/17 04:01:26;;;;;;;15.27;7.13;;;;;;;17.42;43.77;99945.56;4215610;28;20048;-43
2022/01/17 04:03:28;;;;;;;13.98;7.32;;;;;;;17.45;43.60;99939.44;4218340;28;20031;-43
2022/01/17 04:05:35;;;;;;;16.25;6.60;;;;;;;17.45;43.80;99917.31;4231652;28;20039;-43
2022/01/17 04:07:36;;;;;;;14.95;6.03;;;;;;;17.44;43.61;99910.97;4224703;28;20043;-43
2022/01/17 04:09:40;;;;;;;16.85;7.00;;;;;;;17.43;43.78;99889.94;4230259;27;20470;-46
2022/01/17 04:11:42;;;;;;;21.05;9.40;;;;;;;17.44;43.67;99860.34;4230559;28;20047;-44
2022/01/17 04:13:44;;;;;;;33.17;13.43;;;;;;;17.44;43.48;99865.88;4232506;28;20028;-43
2022/01/17 04:15:46;;;;;;;33.58;14.93;;;;;;;17.41;43.71;99822.19;4224070;28;20165;-42
2022/01/17 04:17:47;;;;;;;38.33;15.65;;;;;;;17.43;43.57;99808.91;4232025;28;20088;-43
2022/01/17 04:19:51;;;;;;;36.20;16.27;;;;;;;17.43;43.64;99798.69;4230737;28;20039;-42
2022/01/17 04:21:53;;;;;;;39.58;17.33;;;;;;;17.42;43.68;99807.28;4230158;28;20555;-45
2022/01/17 04:23:54;;;;;;;44.58;18.50;;;;;;;17.37;43.51;99779.66;4231542;28;20043;-43
2022/01/17 04:25:57;;;;;;;38.35;18.20;;;;;;;17.41;43.47;99750.28;4223053;28;20039;-43
2022/01/17 04:27:59;;;;;;;51.42;20.45;;;;;;;17.38;43.58;99729.59;4215045;28;20048;-41
2022/01/17 04:30:03;;;;;;;43.97;19.55;;;;;;;17.38;43.28;99724.06;4219868;28;20113;-41
2022/01/17 04:32:05;;;;;;;45.38;20.85;;;;;;;17.36;43.19;99703.31;4218202;28;20036;-42
2022/01/17 04:34:06;;;;;;;45.72;19.83;;;;;;;17.38;43.52;99706.63;4217928;28;20044;-41
2022/01/17 04:36:08;;;;;;;50.30;21.00;;;;;;;17.38;43.37;99678.97;4215768;28;20039;-42
2022/01/17 04:38:17;;;;;;;51.65;21.40;;;;;;;17.30;43.23;99647.22;4214734;28;20040;-42
2022/01/17 04:40:19;;;;;;;41.70;19.92;;;;;;;17.36;43.35;99648.84;4226458;28;20043;-42
2022/01/17 04:42:27;;;;;;;47.80;21.42;;;;;;;17.38;43.53;99640.28;4218296;28;20085;-42
2022/01/17 04:46:49;;;;;;;46.92;20.77;;;;;;;17.35;43.37;99605.72;4225368;28;20109;-42
2022/01/17 04:48:50;;;;;;;41.33;20.10;;;;;;;17.36;43.10;99574.19;4225821;28;20097;-43
2022/01/17 04:50:52;;;;;;;54.28;20.42;;;;;;;17.36;43.19;99556.75;4214612;28;20086;-42
2022/01/17 04:52:55;;;;;;;49.15;20.27;;;;;;;17.31;43.24;99556.81;4230173;28;20039;-42
2022/01/17 04:55:01;;;;;;;45.38;19.52;;;;;;;17.34;43.37;99550.72;4228252;28;20043;-42
2022/01/17 04:57:03;;;;;;;43.22;20.25;;;;;;;17.33;43.18;99510.34;4220773;28;20044;-40
2022/01/17 04:59:04;;;;;;;45.38;20.42;;;;;;;17.34;43.19;99500.94;4215801;28;20032;-43
2022/01/17 05:01:05;;;;;;;48.13;20.40;;;;;;;17.35;43.29;99486.00;4230332;28;20073;-42
2022/01/17 05:03:07;;;;;;;43.25;19.60;;;;;;;17.35;42.97;99469.41;4231048;28;20039;-42
2022/01/17 05:05:10;;;;;;;41.78;18.80;;;;;;;17.35;42.90;99441.75;4230318;28;20051;-41
2022/01/17 05:07:12;;;;;;;43.58;19.10;;;;;;;17.32;42.86;99411.91;4219336;28;20039;-42
2022/01/17 05:09:14;;;;;;;44.88;19.20;;;;;;;17.32;42.89;99410.00;4229860;27;20445;-41
2022/01/17 05:11:15;;;;;;;41.20;18.30;;;;;;;17.32;42.98;99384.25;4230202;28;20047;-43
2022/01/17 05:13:25;;;;;;;38.35;17.67;;;;;;;17.32;43.16;99370.44;4234400;27;20035;-42
2022/01/17 05:15:33;;;;;;;40.72;18.75;;;;;;;17.33;43.26;99377.66;4237151;27;20183;-41
2022/01/17 05:17:43;;;;;;;39.47;18.73;;;;;;;17.34;42.91;99340.56;4219023;28;20048;-42
2022/01/17 05:19:48;;;;;;;38.45;18.08;;;;;;;17.34;43.20;99335.03;4214951;28;20557;-42
2022/01/17 05:21:50;;;;;;;37.03;19.17;;;;;;;17.34;43.21;99324.00;4219237;28;20043;-44
2022/01/17 05:23:51;;;;;;;42.83;17.45;;;;;;;17.33;43.31;99287.22;4229137;28;20423;-43
2022/01/17 05:25:53;;;;;;;41.88;17.73;;;;;;;17.27;43.02;99269.88;4228227;28;20036;-41
2022/01/17 05:27:54;;;;;;;36.42;17.08;;;;;;;17.30;43.27;99257.41;4224988;28;20057;-44
2022/01/17 05:29:56;;;;;;;35.88;17.33;;;;;;;17.33;43.31;99231.13;4227177;28;20043;-42
2022/01/17 05:31:57;;;;;;;36.92;17.77;;;;;;;17.33;43.47;99222.81;4225447;27;20084;-42
2022/01/17 05:33:59;;;;;;;36.83;17.35;;;;;;;17.34;43.28;99221.69;4229794;28;20088;-42
2022/01/17 05:36:00;;;;;;;35.75;16.13;;;;;;;17.31;43.42;99198.22;4227764;28;20296;-41
2022/01/17 05:38:02;;;;;;;33.30;15.88;;;;;;;17.34;43.61;99196.81;4229082;28;20040;-43
2022/01/17 05:40:05;;;;;;;36.22;15.48;;;;;;;17.32;43.83;99177.75;4232905;27;20127;-42
2022/01/17 05:42:08;;;;;;;34.63;16.20;;;;;;;17.35;43.93;99162.50;4225835;28;20093;-42
2022/01/17 05:44:09;;;;;;;32.92;15.65;;;;;;;17.33;43.84;99154.53;4230828;27;20036;-41
2022/01/17 05:46:10;;;;;;;38.20;15.23;;;;;;;17.33;43.96;99149.00;4229380;28;20043;-42
2022/01/17 05:48:12;;;;;;;30.83;14.55;;;;;;;17.34;43.85;99127.69;4217475;27;20044;-41
2022/01/17 05:50:15;;;;;;;36.20;14.35;;;;;;;17.35;43.80;99101.69;4207076;28;20036;-42
2022/01/17 05:52:16;;;;;;;32.50;13.93;;;;;;;17.30;43.93;99091.53;4230115;28;20051;-41
2022/01/17 05:54:18;;;;;;;36.45;15.27;;;;;;;17.35;43.54;99072.09;4229889;28;20023;-45
2022/01/17 05:56:19;;;;;;;32.70;14.85;;;;;;;17.34;43.66;99058.56;4228945;28;20027;-43
2022/01/17 05:58:21;;;;;;;31.88;13.75;;;;;;;17.34;43.74;99064.91;4228702;28;20093;-42
2022/01/17 06:00:22;;;;;;;29.83;13.88;;;;;;;17.35;43.72;99040.84;4210298;28;20040;-42
2022/01/17 06:02:24;;;;;;;27.35;14.55;;;;;;;17.35;43.54;99013.22;4228271;28;20080;-42
2022/01/17 06:04:25;;;;;;;30.15;13.00;;;;;;;17.28;43.75;98986.78;4228747;28;20130;-43
2022/01/17 06:06:27;;;;;;;35.78;14.05;;;;;;;17.30;43.94;98974.59;4224001;28;20440;-41
2022/01/17 06:08:28;;;;;;;34.15;14.00;;;;;;;17.33;43.81;98974.00;4224097;28;20040;-42
2022/01/17 06:10:29;;;;;;;32.03;13.15;;;;;;;17.33;43.72;98974.00;4228083;28;20172;-42
2022/01/17 06:12:31;;;;;;;25.88;11.70;;;;;;;17.35;43.52;98966.22;4228835;28;20176;-42
2022/01/17 06:14:32;;;;;;;32.53;13.07;;;;;;;17.34;43.80;98937.75;4228469;28;20471;-45
2022/01/17 06:16:35;;;;;;;24.48;11.57;;;;;;;17.35;43.67;98950.44;4228787;28;20032;-42
2022/01/17 06:18:36;;;;;;;21.33;11.00;;;;;;;17.36;43.69;98965.06;4228601;28;20043;-40
2022/01/17 06:20:37;;;;;;;29.55;11.82;;;;;;;17.36;43.95;98962.31;4228281;28;20131;-41
2022/01/17 06:22:39;;;;;;;34.45;12.35;;;;;;;17.30;43.61;98952.47;4228256;28;20467;-42
2022/01/17 06:24:43;;;;;;;26.65;11.77;;;;;;;17.35;43.80;98994.66;4229285;28;20021;-41
2022/01/17 06:26:47;;;;;;;24.08;10.93;;;;;;;17.38;43.85;98982.19;4228495;28;20092;-43
2022/01/17 06:28:49;;;;;;;25.95;10.68;;;;;;;17.40;43.34;99013.13;4228005;28;20527;-42
2022/01/17 06:30:50;;;;;;;24.92;12.55;;;;;;;17.38;43.53;99015.38;4229258;28;20470;-42
2022/01/17 06:32:52;;;;;;;24.10;11.30;;;;;;;17.41;43.42;99047.94;4228231;28;20035;-42
2022/01/17 06:34:54;;;;;;;22.38;10.80;;;;;;;17.44;43.23;99074.97;4227964;28;20105;-42
2022/01/17 06:36:56;;;;;;;28.20;11.13;;;;;;;17.44;43.61;99091.56;4223715;28;20040;-42
2022/01/17 06:38:57;;;;;;;22.45;10.43;;;;;;;17.40;43.53;99129.25;4227981;28;20044;-44
2022/01/17 06:40:59;;;;;;;22.02;9.95;;;;;;;17.40;43.45;99090.53;4229792;28;20043;-43
2022/01/17 06:43:00;;;;;;;22.60;10.13;;;;;;;17.41;43.61;99048.78;4230632;28;20073;-42
2022/01/17 06:45:04;;;;;;;21.10;9.82;;;;;;;17.33;44.02;99019.06;4230498;28;20084;-42
2022/01/17 06:47:05;;;;;;;21.17;10.43;;;;;;;17.29;44.23;99006.97;4229563;28;20146;-43
2022/01/17 06:49:07;;;;;;;27.10;10.13;;;;;;;17.22;44.35;98990.75;4229353;28;20085;-44
2022/01/17 06:51:08;;;;;;;20.08;8.77;;;;;;;17.19;44.17;98930.56;4229696;28;20040;-43
2022/01/17 06:53:10;;;;;;;23.45;10.07;;;;;;;17.19;44.55;98880.00;4228955;28;20036;-43
2022/01/17 06:55:12;;;;;;;20.63;9.20;;;;;;;17.17;44.59;98832.47;4229595;28;20039;-42
2022/01/17 06:57:13;;;;;;;21.40;9.70;;;;;;;17.15;44.48;98785.81;4231403;28;20043;-43
2022/01/17 06:59:18;;;;;;;19.65;9.07;;;;;;;17.15;44.73;98747.13;4232397;28;20390;-41
2022/01/17 07:01:23;;;;;;;21.45;10.05;;;;;;;17.21;44.81;98707.19;4233618;28;20028;-42
2022/01/17 07:03:24;;;;;;;19.52;8.85;;;;;;;17.25;44.72;98679.75;4232928;28;20040;-41
2022/01/17 07:05:25;;;;;;;15.80;8.45;;;;;;;17.26;44.77;98609.50;4232468;28;20032;-44
2022/01/17 07:07:27;;;;;;;17.45;8.27;;;;;;;17.29;44.60;98559.16;4231563;28;20031;-43
2022/01/17 07:09:29;;;;;;;21.10;8.35;;;;;;;17.32;44.65;98521.75;4232213;28;20039;-44
2022/01/17 07:11:31;;;;;;;18.27;8.20;;;;;;;17.35;44.76;98530.22;4231643;28;20065;-42
2022/01/17 07:13:33;;;;;;;19.23;8.88;;;;;;;17.38;44.42;98473.50;4232670;28;20475;-43
2022/01/17 07:15:34;;;;;;;21.02;9.23;;;;;;;17.45;44.26;98468.34;4215063;28;20109;-42
2022/01/17 07:17:36;;;;;;;20.50;8.52;;;;;;;17.46;44.25;98487.38;4214792;28;20036;-42
2022/01/17 07:19:38;;;;;;;17.65;7.95;;;;;;;17.51;44.38;98506.59;4232581;28;20035;-41
2022/01/17 07:21:39;;;;;;;17.17;7.90;;;;;;;17.56;44.41;98571.19;4236439;27;20092;-42
2022/01/17 07:23:41;;;;;;;15.73;7.90;;;;;;;17.60;44.07;98566.69;4249631;27;20043;-41
2022/01/17 07:25:45;;;;;;;16.13;7.05;;;;;;;17.56;44.28;98552.66;4250186;27;20820;-40
2022/01/17 07:27:49;;;;;;;16.52;7.05;;;;;;;17.68;44.29;98577.78;4250117;27;20031;-44
2022/01/17 07:29:51;;;;;;;14.57;7.70;;;;;;;17.72;44.18;98597.31;4249212;27;20035;-41
2022/01/17 07:31:57;;;;;;;15.77;7.93;;;;;;;17.73;43.82;98608.13;4249672;27;20035;-41
2022/01/17 07:33:59;;;;;;;18.35;7.65;;;;;;;17.79;43.87;98628.16;4249578;27;20104;-42
2022/01/17 07:36:00;;;;;;;14.95;7.55;;;;;;;17.81;43.63;98641.66;4249054;27;20111;-43
2022/01/17 07:38:02;;;;;;;14.25;7.38;;;;;;;17.83;43.92;98618.09;4231596;28;20100;-41
2022/01/17 07:40:05;;;;;;;16.70;7.03;;;;;;;17.83;43.59;98622.81;4248758;27;20043;-42
2022/01/17 07:42:07;;;;;;;14.13;6.70;;;;;;;17.82;43.70;98633.03;4249660;27;20043;-43
2022/01/17 07:44:18;;;;;;;14.68;6.80;;;;;;;17.83;43.32;98639.41;4231732;28;20522;-43
2022/01/17 07:46:25;;;;;;;14.68;6.90;;;;;;;17.89;43.30;98627.09;4249714;27;20112;-43
2022/01/17 07:50:51;;;;;;;16.00;7.45;;;;;;;17.90;43.26;98596.31;4204026;28;20039;-42
2022/01/17 07:52:53;;;;;;;14.63;6.95;;;;;;;17.92;43.29;98604.31;4232319;28;20077;-42
2022/01/17 07:54:54;;;;;;;16.27;6.63;;;;;;;17.92;42.93;98596.03;4231748;28;20131;-42
2022/01/17 07:56:57;;;;;;;14.48;7.00;;;;;;;17.93;42.80;98603.19;4231602;28;20433;-42
2022/01/17 07:59:02;;;;;;;12.13;6.40;;;;;;;17.90;43.06;98590.78;4213370;28;20157;-43
2022/01/17 08:01:03;;;;;;;13.13;6.40;;;;;;;17.94;42.94;98596.50;4232174;28;20444;-43
2022/01/17 08:03:06;;;;;;;14.27;6.82;;;;;;;17.96;43.11;98588.69;4231658;28;20028;-43
2022/01/17 08:05:14;;;;;;;11.32;5.97;;;;;;;17.94;42.81;98579.91;4231518;28;20047;-42
2022/01/17 08:07:15;;;;;;;12.07;5.32;;;;;;;17.95;43.04;98570.47;4232322;28;20035;-44
2022/01/17 08:09:29;;;;;;;11.52;5.93;;;;;;;17.93;42.82;98547.84;4231187;28;20084;-44
2022/01/17 08:11:31;;;;;;;13.30;6.35;;;;;;;17.94;42.58;98546.69;4231543;28;20051;-42
2022/01/17 08:13:32;;;;;;;13.75;6.30;;;;;;;17.94;42.67;98546.69;4214714;28;20103;-42
2022/01/17 08:15:38;;;;;;;13.20;5.70;;;;;;;17.95;42.45;98559.41;4231828;28;20093;-46
2022/01/17 08:17:39;;;;;;;10.75;6.05;;;;;;;17.95;42.64;98556.63;4231866;28;20047;-43
2022/01/17 08:19:41;;;;;;;11.27;5.25;;;;;;;17.95;42.66;98559.41;4231092;28;20097;-43
2022/01/17 08:21:42;;;;;;;12.55;6.15;;;;;;;17.97;42.72;98548.84;4235123;27;20051;-43
2022/01/17 08:23:44;;;;;;;11.77;5.97;;;;;;;17.95;42.56;98557.44;4249492;27;20530;-42
2022/01/17 08:25:45;;;;;;;10.60;5.60;;;;;;;17.98;42.50;98561.53;4248784;27;20431;-42
2022/01/17 08:27:47;;;;;;;10.63;5.18;;;;;;;18.00;42.25;98560.06;4248936;27;20034;-43
2022/01/17 08:29:48;;;;;;;13.65;6.00;;;;;;;18.01;42.52;98563.69;4248512;27;20031;-42
2022/01/17 08:31:50;;;;;;;9.38;5.10;;;;;;;18.01;42.29;98563.69;4230274;27;20036;-44
2022/01/17 08:33:51;;;;;;;11.70;5.60;;;;;;;18.00;42.30;98562.03;4213982;28;20093;-43
2022/01/17 08:35:52;;;;;;;10.13;4.90;;;;;;;18.00;42.23;98550.94;4229088;28;20433;-44
2022/01/17 08:37:54;;;;;;;11.32;4.82;;;;;;;17.99;42.44;98554.88;4231211;28;20043;-43
2022/01/17 08:39:55;;;;;;;13.27;5.35;;;;;;;17.98;42.50;98554.06;4226254;28;20044;-43
2022/01/17 08:42:10;;;;;;;10.48;5.40;;;;;;;18.00;42.19;98559.25;4231736;27;20042;-41
2022/01/17 08:44:13;;;;;;;14.05;5.38;;;;;;;17.99;42.11;98560.41;4248524;27;20047;-42
2022/01/17 08:46:15;;;;;;;9.38;4.93;;;;;;;17.95;42.41;98554.69;4237710;27;20040;-42
2022/01/17 08:48:16;;;;;;;12.45;4.93;;;;;;;17.96;42.47;98547.19;4231519;28;20047;-43
2022/01/17 08:50:20;;;;;;;10.80;4.80;;;;;;;17.95;42.12;98553.88;4231253;28;20364;-43
2022/01/17 08:52:21;;;;;;;12.00;4.57;;;;;;;17.92;42.29;98543.47;4231139;28;20035;-42
2022/01/17 08:54:22;;;;;;;11.13;4.85;;;;;;;17.95;42.13;98542.78;4215825;28;20043;-42
2022/01/17 08:56:27;;;;;;;10.38;4.35;;;;;;;17.97;42.22;98546.06;4229870;28;20072;-42
2022/01/17 08:58:32;;;;;;;8.23;4.18;;;;;;;17.98;41.92;98544.94;4229096;27;20073;-41
2022/01/17 09:00:33;;;;;;;10.60;5.28;;;;;;;18.00;41.86;98528.81;4243204;27;20031;-43
2022/01/17 09:02:35;;;;;;;8.07;4.40;;;;;;;17.98;42.06;98522.81;4229823;28;20441;-43
2022/01/17 09:04:40;;;;;;;8.55;4.35;;;;;;;17.98;41.83;98514.50;4205940;28;20039;-42
2022/01/17 09:06:42;;;;;;;9.45;4.60;;;;;;;17.99;41.93;98522.47;4247913;27;20047;-42
2022/01/17 09:08:43;;;;;;;9.88;4.53;;;;;;;17.94;41.74;98513.50;4242203;27;20100;-42
2022/01/17 09:10:46;;;;;;;9.18;4.47;;;;;;;17.98;41.86;98506.19;4230952;28;20036;-42
2022/01/17 09:12:47;;;;;;;10.82;4.88;;;;;;;17.96;41.66;98494.63;4228806;28;20097;-42
2022/01/17 09:14:49;;;;;;;8.68;4.40;;;;;;;17.95;41.66;98479.97;4230442;28;20044;-42
2022/01/17 09:16:50;;;;;;;8.30;4.60;;;;;;;17.92;41.90;98482.59;4231086;28;20096;-41
2022/01/17 09:18:52;;;;;;;7.93;4.38;;;;;;;17.92;41.93;98469.56;4230629;28;20120;-42
2022/01/17 09:20:53;;;;;;;10.65;4.18;;;;;;;17.94;42.09;98458.16;4230543;28;20152;-42
2022/01/17 09:22:55;;;;;;;8.93;4.32;;;;;;;17.94;41.73;98441.56;4219172;28;20101;-42
2022/01/17 09:24:56;;;;;;;8.82;4.32;;;;;;;17.95;41.91;98445.94;4226593;28;20089;-43
2022/01/17 09:26:57;;;;;;;8.88;4.22;;;;;;;17.96;41.80;98461.41;4221998;28;20110;-42
2022/01/17 09:29:02;;;;;;;6.68;3.65;;;;;;;17.94;41.73;98445.13;4240228;27;20040;-43
2022/01/17 09:31:06;;;;;;;7.70;4.07;;;;;;;17.95;41.86;98444.00;4241368;27;20112;-42
2022/01/17 09:33:08;;;;;;;6.65;3.72;;;;;;;17.93;41.93;98442.72;4228489;28;20543;-43
2022/01/17 09:35:13;;;;;;;7.10;4.00;;;;;;;17.93;41.49;98451.00;4217981;28;20065;-42
2022/01/17 09:37:17;;;;;;;8.00;3.70;;;;;;;17.94;41.41;98427.72;4226305;27;20034;-48
2022/01/17 09:39:19;;;;;;;9.67;4.27;;;;;;;17.93;41.44;98429.69;4247249;27;20424;-42
2022/01/17 09:41:21;;;;;;;7.25;3.75;;;;;;;17.93;41.62;98435.22;4241557;27;20096;-44
2022/01/17 09:43:28;;;;;;;7.22;3.80;;;;;;;17.91;41.74;98444.97;4230753;28;20048;-42
2022/01/17 09:45:30;;;;;;;7.82;4.10;;;;;;;17.89;41.33;98437.00;4231111;28;20072;-43
2022/01/17 09:47:36;;;;;;;7.93;3.75;;;;;;;17.84;41.57;98419.72;4230638;28;20440;-43
2022/01/17 09:49:51;;;;;;;8.30;3.85;;;;;;;17.86;41.61;98418.25;4212568;28;20386;-42
2022/01/17 09:53:59;;;;;;;8.00;4.03;;;;;;;17.88;41.40;98429.03;4241466;27;20027;-42